createdAt,value
2022-10-17T00:02:10.284Z,15.40
2022-10-17T00:04:43.003Z,15.40
2022-10-17T00:07:15.826Z,15.40
2022-10-17T00:09:48.546Z,15.40
2022-10-17T00:12:21.470Z,15.40
2022-10-17T00:14:54.196Z,15.40
2022-10-17T00:17:27.277Z,15.40
2022-10-17T00:20:00.851Z,15.40
2022-10-17T00:22:33.770Z,15.40
2022-10-17T00:25:06.962Z,15.40
2022-10-17T00:27:41.552Z,15.30
2022-10-17T00:30:16.429Z,15.30
2022-10-17T00:32:49.389Z,15.30
2022-10-17T00:35:22.056Z,15.30
2022-10-17T00:37:54.902Z,15.30
2022-10-17T00:40:28.152Z,15.20
2022-10-17T00:43:00.978Z,15.20
2022-10-17T00:45:33.700Z,15.20
2022-10-17T00:48:11.546Z,15.20
2022-10-17T00:50:48.666Z,15.10
2022-10-17T00:53:21.557Z,15.10
2022-10-17T00:55:54.339Z,15.10
2022-10-17T00:58:27.171Z,15.10
2022-10-17T01:01:00.362Z,15.10
2022-10-17T01:03:33.288Z,15.10
2022-10-17T01:06:07.038Z,15.00
2022-10-17T01:08:40.009Z,15.00
2022-10-17T01:11:37.936Z,15.00
2022-10-17T01:14:38.011Z,15.00
2022-10-17T01:17:24.631Z,15.00
2022-10-17T01:20:15.458Z,15.00
2022-10-17T01:23:18.529Z,15.00
2022-10-17T01:26:29.565Z,15.00
2022-10-17T01:29:16.561Z,15.00
2022-10-17T01:32:12.286Z,14.90
2022-10-17T01:35:06.840Z,14.90
2022-10-17T01:37:48.277Z,14.90
2022-10-17T01:40:30.387Z,14.90
2022-10-17T01:43:29.303Z,14.90
2022-10-17T01:46:24.875Z,14.90
2022-10-17T01:49:01.483Z,14.90
2022-10-17T01:51:39.853Z,14.90
2022-10-17T01:54:31.413Z,14.90
2022-10-17T01:57:09.093Z,14.80
2022-10-17T01:59:46.073Z,14.80
2022-10-17T02:02:21.202Z,14.80
2022-10-17T02:04:56.858Z,14.80
2022-10-17T02:07:30.130Z,14.80
2022-10-17T02:10:06.655Z,14.70
2022-10-17T02:12:48.646Z,14.70
2022-10-17T02:15:33.198Z,14.70
2022-10-17T02:18:33.849Z,14.70
2022-10-17T02:21:24.255Z,14.70
2022-10-17T02:24:26.084Z,14.70
2022-10-17T02:27:10.631Z,14.70
2022-10-17T02:29:52.889Z,14.60
2022-10-17T02:32:58.704Z,14.60
2022-10-17T02:35:34.696Z,14.60
2022-10-17T02:38:11.037Z,14.60
2022-10-17T02:40:46.401Z,14.60
2022-10-17T02:43:20.474Z,14.60
2022-10-17T02:45:54.185Z,14.60
2022-10-17T02:48:43.465Z,14.60
2022-10-17T02:51:26.347Z,14.60
2022-10-17T02:54:20.244Z,14.60
2022-10-17T02:56:59.001Z,14.60
2022-10-17T03:02:10.756Z,14.60
2022-10-17T03:04:45.700Z,14.60
2022-10-17T03:07:18.534Z,14.60
2022-10-17T03:09:51.281Z,14.50
2022-10-17T03:12:24.211Z,14.50
2022-10-17T03:14:58.552Z,14.50
2022-10-17T03:17:31.951Z,14.50
2022-10-17T03:20:06.245Z,14.50
2022-10-17T03:22:40.812Z,14.50
2022-10-17T03:25:22.000Z,14.50
2022-10-17T03:31:16.411Z,14.50
2022-10-17T03:33:53.083Z,14.50
2022-10-17T03:36:32.988Z,14.50
2022-10-17T03:39:10.280Z,14.50
2022-10-17T03:41:47.491Z,14.40
2022-10-17T03:44:26.651Z,14.40
2022-10-17T03:47:04.488Z,14.40
2022-10-17T03:49:40.997Z,14.40
2022-10-17T03:52:23.048Z,14.40
2022-10-17T03:55:05.118Z,14.30
2022-10-17T03:57:55.944Z,14.30
2022-10-17T04:00:34.220Z,14.30
2022-10-17T04:03:16.416Z,14.30
2022-10-17T04:08:59.534Z,14.30
2022-10-17T04:11:38.563Z,14.30
2022-10-17T04:14:11.337Z,14.30
2022-10-17T04:16:45.408Z,14.30
2022-10-17T04:19:22.846Z,14.30
2022-10-17T04:21:56.629Z,14.30
2022-10-17T04:24:29.662Z,14.30
2022-10-17T04:27:15.164Z,14.30
2022-10-17T04:29:51.073Z,14.30
2022-10-17T04:32:29.290Z,14.30
2022-10-17T04:35:07.911Z,14.20
2022-10-17T04:37:41.197Z,14.20
2022-10-17T04:40:19.362Z,14.20
2022-10-17T04:42:52.824Z,14.20
2022-10-17T04:45:29.169Z,14.20
2022-10-17T04:48:06.300Z,14.20
2022-10-17T04:50:39.835Z,14.10
2022-10-17T04:53:37.817Z,14.10
2022-10-17T04:56:16.655Z,14.10
2022-10-17T04:58:50.746Z,14.10
2022-10-17T05:01:23.894Z,14.10
2022-10-17T05:03:59.051Z,14.10
2022-10-17T05:06:33.015Z,14.10
2022-10-17T05:09:21.623Z,14.10
2022-10-17T05:11:54.616Z,14.10
2022-10-17T05:14:28.388Z,14.10
2022-10-17T05:17:01.319Z,14.10
2022-10-17T05:19:34.945Z,14.10
2022-10-17T05:22:07.955Z,14.10
2022-10-17T05:24:40.879Z,14.10
2022-10-17T05:27:14.578Z,14.10
2022-10-17T05:29:47.522Z,14.10
2022-10-17T05:32:29.324Z,14.10
2022-10-17T05:35:04.214Z,14.00
2022-10-17T05:37:38.098Z,14.00
2022-10-17T05:40:11.724Z,14.00
2022-10-17T05:42:47.994Z,14.00
2022-10-17T05:45:22.148Z,14.00
2022-10-17T05:47:55.059Z,14.00
2022-10-17T05:50:28.096Z,14.00
2022-10-17T05:53:35.995Z,14.00
2022-10-17T05:56:13.337Z,14.00
2022-10-17T05:58:52.259Z,14.00
2022-10-17T06:01:37.166Z,14.00
2022-10-17T06:04:09.943Z,14.00
2022-10-17T06:06:43.946Z,14.00
2022-10-17T06:09:16.798Z,14.00
2022-10-17T06:11:55.849Z,14.00
2022-10-17T06:14:29.638Z,14.00
2022-10-17T06:17:06.652Z,14.00
2022-10-17T06:19:41.213Z,14.10
2022-10-17T06:22:14.742Z,14.10
2022-10-17T06:24:48.210Z,14.10
2022-10-17T06:27:21.700Z,14.10
2022-10-17T06:29:54.510Z,14.20
2022-10-17T06:32:27.687Z,14.20
2022-10-17T06:35:00.693Z,14.20
2022-10-17T06:37:36.620Z,14.20
2022-10-17T06:40:15.161Z,14.20
2022-10-17T06:42:48.347Z,14.30
2022-10-17T06:45:50.417Z,14.30
2022-10-17T06:48:31.394Z,14.30
2022-10-17T06:51:19.193Z,14.30
2022-10-17T06:53:59.707Z,14.40
2022-10-17T06:56:39.288Z,14.40
2022-10-17T06:59:36.555Z,14.40
2022-10-17T07:02:16.523Z,14.50
2022-10-17T07:04:50.495Z,14.50
2022-10-17T07:07:23.357Z,14.50
2022-10-17T07:09:56.158Z,14.60
2022-10-17T07:12:30.332Z,14.60
2022-10-17T07:15:04.858Z,14.60
2022-10-17T07:17:37.844Z,14.60
2022-10-17T07:20:11.056Z,14.70
2022-10-17T07:22:45.230Z,14.70
2022-10-17T07:25:18.151Z,14.70
2022-10-17T07:27:57.071Z,14.80
2022-10-17T07:30:30.303Z,14.80
2022-10-17T07:33:08.325Z,14.80
2022-10-17T07:35:41.226Z,14.90
2022-10-17T07:38:14.284Z,14.90
2022-10-17T07:40:54.516Z,15.00
2022-10-17T07:43:27.885Z,15.10
2022-10-17T07:46:01.994Z,15.10
2022-10-17T07:48:35.630Z,15.20
2022-10-17T07:51:09.906Z,15.30
2022-10-17T07:53:46.487Z,15.40
2022-10-17T07:56:24.563Z,15.50
2022-10-17T08:01:30.316Z,15.70
2022-10-17T08:04:03.326Z,15.80
2022-10-17T08:06:36.519Z,15.80
2022-10-17T08:09:09.211Z,15.90
2022-10-17T08:11:44.078Z,15.80
2022-10-17T08:14:16.932Z,15.90
2022-10-17T08:16:49.781Z,15.90
2022-10-17T08:19:22.508Z,15.90
2022-10-17T08:21:55.480Z,15.90
2022-10-17T08:24:28.186Z,15.90
2022-10-17T08:27:01.427Z,16.00
2022-10-17T08:29:34.179Z,16.10
2022-10-17T08:32:09.948Z,16.10
2022-10-17T08:34:56.560Z,16.20
2022-10-17T08:37:34.664Z,16.30
2022-10-17T08:40:21.474Z,16.40
2022-10-17T08:43:20.801Z,16.40
2022-10-17T08:46:00.279Z,16.50
2022-10-17T08:48:42.721Z,16.60
2022-10-17T08:51:34.770Z,16.60
2022-10-17T08:54:17.683Z,16.70
2022-10-17T08:56:53.137Z,16.80
2022-10-17T08:59:28.833Z,16.90
2022-10-17T09:02:26.246Z,17.00
2022-10-17T09:05:26.425Z,17.10
2022-10-17T09:08:06.291Z,17.20
2022-10-17T09:11:03.270Z,17.30
2022-10-17T09:13:58.521Z,17.40
2022-10-17T09:17:15.427Z,17.60
2022-10-17T09:20:23.683Z,17.70
2022-10-17T09:23:13.172Z,17.80
2022-10-17T09:25:49.760Z,17.90
2022-10-17T09:28:25.263Z,17.90
2022-10-17T09:31:16.841Z,18.00
2022-10-17T09:33:54.811Z,18.10
2022-10-17T09:36:34.970Z,18.20
2022-10-17T09:39:17.521Z,18.20
2022-10-17T09:41:54.198Z,18.20
2022-10-17T09:44:31.638Z,18.20
2022-10-17T09:47:24.186Z,18.10
2022-10-17T09:49:57.375Z,18.10
2022-10-17T09:52:48.547Z,18.10
2022-10-17T09:55:50.081Z,18.20
2022-10-17T09:58:23.268Z,18.20
2022-10-17T10:01:24.142Z,18.30
2022-10-17T10:04:13.904Z,18.40
2022-10-17T10:07:04.718Z,18.60
2022-10-17T10:09:39.625Z,18.70
2022-10-17T10:12:35.037Z,18.80
2022-10-17T10:15:41.127Z,19.00
2022-10-17T10:21:13.022Z,19.40
2022-10-17T10:24:12.649Z,19.50
2022-10-17T10:26:48.899Z,19.70
2022-10-17T10:29:35.612Z,19.80
2022-10-17T10:32:22.486Z,19.90
2022-10-17T10:35:17.540Z,19.90
2022-10-17T10:37:57.522Z,19.90
2022-10-17T10:40:44.448Z,19.90
2022-10-17T10:43:42.212Z,19.80
2022-10-17T10:46:27.303Z,19.70
2022-10-17T10:49:01.941Z,19.70
2022-10-17T10:51:44.002Z,19.70
2022-10-17T10:54:24.128Z,19.90
2022-10-17T10:57:00.144Z,20.00
2022-10-17T11:00:04.919Z,20.10
2022-10-17T11:02:40.838Z,20.30
2022-10-17T11:05:39.183Z,20.50
2022-10-17T11:08:34.096Z,20.70
2022-10-17T11:11:43.658Z,20.90
2022-10-17T11:14:32.815Z,21.20
2022-10-17T11:17:21.070Z,21.40
2022-10-17T11:20:12.535Z,21.50
2022-10-17T11:33:48.688Z,23.60
2022-10-17T11:36:28.086Z,23.70
2022-10-17T11:39:37.942Z,23.80
2022-10-17T11:42:34.657Z,23.60
2022-10-17T11:45:15.770Z,23.30
2022-10-17T11:48:04.742Z,23.20
2022-10-17T11:53:56.261Z,23.20
2022-10-17T11:59:33.125Z,22.90
2022-10-17T12:02:14.827Z,22.70
2022-10-17T12:05:05.526Z,22.50
2022-10-17T12:08:01.339Z,22.20
2022-10-17T12:10:57.681Z,21.80
2022-10-17T12:13:33.395Z,21.40
2022-10-17T12:16:21.282Z,21.10
2022-10-17T12:19:06.291Z,20.80
2022-10-17T12:21:56.953Z,20.60
2022-10-17T12:24:44.526Z,20.40
2022-10-17T12:27:42.286Z,20.30
2022-10-17T12:30:26.447Z,20.20
2022-10-17T12:33:07.066Z,20.10
2022-10-17T12:35:40.212Z,20.00
2022-10-17T12:38:18.992Z,20.00
2022-10-17T12:40:54.202Z,19.90
2022-10-17T12:43:29.968Z,19.80
2022-10-17T12:46:04.793Z,19.70
2022-10-17T12:48:37.591Z,19.70
2022-10-17T12:51:36.408Z,19.70
2022-10-17T12:54:15.879Z,19.70
2022-10-17T12:56:49.784Z,19.70
2022-10-17T12:59:29.262Z,19.90
2022-10-17T13:02:03.695Z,20.10
2022-10-17T13:04:36.985Z,20.20
2022-10-17T13:07:21.662Z,20.30
2022-10-17T13:09:54.499Z,20.30
2022-10-17T13:12:28.435Z,20.40
2022-10-17T13:15:06.616Z,20.40
2022-10-17T13:17:43.066Z,20.50
2022-10-17T13:20:25.601Z,20.60
2022-10-17T13:23:01.902Z,20.70
2022-10-17T13:25:38.817Z,20.70
2022-10-17T13:28:13.725Z,20.80
2022-10-17T13:30:49.598Z,20.80
2022-10-17T13:33:34.386Z,20.80
2022-10-17T13:36:15.532Z,20.70
2022-10-17T13:38:48.414Z,20.80
2022-10-17T13:41:35.895Z,20.80
2022-10-17T13:44:17.967Z,20.90
2022-10-17T13:46:51.540Z,21.00
2022-10-17T13:49:35.001Z,20.90
2022-10-17T13:52:17.232Z,20.90
2022-10-17T13:54:51.452Z,20.90
2022-10-17T13:57:30.379Z,20.90
2022-10-17T14:00:11.787Z,20.80
2022-10-17T14:02:45.365Z,20.80
2022-10-17T14:05:20.648Z,20.80
2022-10-17T14:08:21.868Z,20.80
2022-10-17T14:10:53.031Z,20.80
2022-10-17T14:13:35.768Z,20.80
2022-10-17T14:16:10.296Z,20.70
2022-10-17T14:18:47.408Z,20.70
2022-10-17T14:21:44.267Z,20.60
2022-10-17T14:24:27.951Z,20.50
2022-10-17T14:27:00.876Z,20.50
2022-10-17T14:29:51.308Z,20.40
2022-10-17T14:32:24.362Z,20.30
2022-10-17T14:35:17.770Z,20.30
2022-10-17T14:37:57.789Z,20.30
2022-10-17T14:40:51.550Z,20.20
2022-10-17T14:43:27.141Z,20.20
2022-10-17T14:46:01.140Z,20.10
2022-10-17T14:48:34.034Z,20.00
2022-10-17T14:51:15.926Z,20.00
2022-10-17T14:54:15.301Z,19.90
2022-10-17T14:56:53.433Z,19.90
2022-10-17T14:59:52.278Z,19.90
2022-10-17T15:02:18.935Z,19.80
2022-10-17T15:04:52.167Z,19.80
2022-10-17T15:07:25.035Z,19.80
2022-10-17T15:09:57.974Z,19.70
2022-10-17T15:12:31.758Z,19.80
2022-10-17T15:15:05.291Z,19.80
2022-10-17T15:17:38.045Z,19.80
2022-10-17T15:20:16.009Z,19.80
2022-10-17T15:22:48.877Z,19.70
2022-10-17T15:25:22.556Z,19.70
2022-10-17T15:27:55.774Z,19.70
2022-10-17T15:30:32.349Z,19.70
2022-10-17T15:33:05.258Z,19.70
2022-10-17T15:35:38.154Z,19.60
2022-10-17T15:38:16.931Z,19.60
2022-10-17T15:40:51.928Z,19.50
2022-10-17T15:43:24.657Z,19.50
2022-10-17T15:45:59.866Z,19.50
2022-10-17T15:48:32.652Z,19.40
2022-10-17T15:51:05.531Z,19.40
2022-10-17T15:53:38.636Z,19.40
2022-10-17T15:56:37.043Z,19.40
2022-10-17T15:59:18.268Z,19.40
2022-10-17T16:01:51.366Z,19.40
2022-10-17T16:04:26.786Z,19.40
2022-10-17T16:06:59.591Z,19.40
2022-10-17T16:09:33.275Z,19.30
2022-10-17T16:12:10.662Z,19.30
2022-10-17T16:14:43.370Z,19.20
2022-10-17T16:17:17.683Z,19.20
2022-10-17T16:19:50.477Z,19.20
2022-10-17T16:22:32.659Z,19.10
2022-10-17T16:25:09.746Z,19.10
2022-10-17T16:27:42.741Z,19.10
2022-10-17T16:30:16.047Z,19.00
2022-10-17T16:32:49.220Z,19.00
2022-10-17T16:35:31.866Z,19.00
2022-10-17T16:38:08.028Z,18.90
2022-10-17T16:40:41.186Z,18.90
2022-10-17T16:43:14.065Z,18.90
2022-10-17T16:45:46.907Z,18.90
2022-10-17T16:48:19.598Z,18.90
2022-10-17T16:50:52.414Z,18.80
2022-10-17T16:53:25.056Z,18.80
2022-10-17T16:56:02.684Z,18.80
2022-10-17T16:58:36.804Z,18.70
2022-10-17T17:01:15.923Z,18.70
2022-10-17T17:03:49.662Z,18.70
2022-10-17T17:06:26.330Z,18.70
2022-10-17T17:08:59.192Z,18.60
2022-10-17T17:11:32.738Z,18.60
2022-10-17T17:14:06.875Z,18.60
2022-10-17T17:16:39.949Z,18.50
2022-10-17T17:19:16.694Z,18.50
2022-10-17T17:21:52.329Z,18.50
2022-10-17T17:24:25.465Z,18.50
2022-10-17T17:26:58.308Z,18.50
2022-10-17T17:29:31.040Z,18.50
2022-10-17T17:32:04.243Z,18.50
2022-10-17T17:34:37.955Z,18.50
2022-10-17T17:37:10.754Z,18.40
2022-10-17T17:39:43.574Z,18.40
2022-10-17T17:42:16.261Z,18.40
2022-10-17T17:44:49.711Z,18.40
2022-10-17T17:47:22.604Z,18.40
2022-10-17T17:49:55.334Z,18.30
2022-10-17T17:52:29.771Z,18.30
2022-10-17T17:55:02.761Z,18.30
2022-10-17T17:57:35.561Z,18.30
2022-10-17T18:00:08.755Z,18.20
2022-10-17T18:02:43.735Z,18.20
2022-10-17T18:05:17.457Z,18.20
2022-10-17T18:07:50.290Z,18.20
2022-10-17T18:10:23.106Z,18.10
2022-10-17T18:13:04.065Z,18.10
2022-10-17T18:15:39.892Z,18.10
2022-10-17T18:18:13.116Z,18.00
2022-10-17T18:20:46.362Z,18.00
2022-10-17T18:23:19.041Z,18.00
2022-10-17T18:26:03.289Z,18.00
2022-10-17T18:28:38.486Z,18.00
2022-10-17T18:31:18.972Z,18.00
2022-10-17T18:33:53.417Z,18.00
2022-10-17T18:36:26.929Z,17.90
2022-10-17T18:39:00.652Z,17.90
2022-10-17T18:41:34.226Z,17.90
2022-10-17T18:44:06.958Z,17.90
2022-10-17T18:46:41.226Z,17.90
2022-10-17T18:49:18.810Z,17.90
2022-10-17T18:51:51.811Z,17.90
2022-10-17T18:54:24.492Z,17.90
2022-10-17T18:56:57.188Z,17.80
2022-10-17T18:59:30.190Z,17.80
2022-10-17T19:02:03.011Z,17.80
2022-10-17T19:04:36.763Z,17.80
2022-10-17T19:07:09.446Z,17.80
2022-10-17T19:09:42.379Z,17.80
2022-10-17T19:12:15.578Z,17.80
2022-10-17T19:14:50.634Z,17.80
2022-10-17T19:17:23.362Z,17.80
2022-10-17T19:19:56.218Z,17.80
2022-10-17T19:22:31.131Z,17.70
2022-10-17T19:25:04.105Z,17.70
2022-10-17T19:27:37.204Z,17.70
2022-10-17T19:30:12.447Z,17.70
2022-10-17T19:32:45.444Z,17.70
2022-10-17T19:35:18.386Z,17.60
2022-10-17T19:37:51.110Z,17.60
2022-10-17T19:40:23.851Z,17.60
2022-10-17T19:42:56.544Z,17.60
2022-10-17T19:45:29.365Z,17.60
2022-10-17T19:48:01.998Z,17.60
2022-10-17T19:50:36.754Z,17.50
2022-10-17T19:53:11.849Z,17.50
2022-10-17T19:55:44.573Z,17.50
2022-10-17T19:58:17.534Z,17.50
2022-10-17T20:04:14.327Z,17.50
2022-10-17T20:06:59.781Z,17.50
2022-10-17T20:09:59.832Z,17.50
2022-10-17T20:12:38.189Z,17.50
2022-10-17T20:15:41.749Z,17.50
2022-10-17T20:18:17.502Z,17.50
2022-10-17T20:20:53.388Z,17.50
2022-10-17T20:23:31.235Z,17.50
2022-10-17T20:26:33.490Z,17.50
2022-10-17T20:32:39.835Z,17.50
2022-10-17T20:35:26.221Z,17.50
2022-10-17T20:38:14.033Z,17.50
2022-10-17T20:47:52.207Z,17.40
2022-10-17T20:50:39.701Z,17.40
2022-10-17T20:53:37.415Z,17.40
2022-10-17T20:56:26.594Z,17.40
2022-10-17T20:59:15.725Z,17.40
2022-10-17T21:02:15.579Z,17.40
2022-10-17T21:04:50.348Z,17.40
2022-10-17T21:07:50.033Z,17.30
2022-10-17T21:10:57.255Z,17.30
2022-10-17T21:13:47.529Z,17.30
2022-10-17T21:16:54.635Z,17.20
2022-10-17T21:19:43.657Z,17.20
2022-10-17T21:22:18.897Z,17.20
2022-10-17T21:24:54.506Z,17.20
2022-10-17T21:27:45.900Z,17.20
2022-10-17T21:30:43.381Z,17.20
2022-10-17T21:33:30.320Z,17.20
2022-10-17T21:36:25.476Z,17.10
2022-10-17T21:39:25.506Z,17.10
2022-10-17T21:42:37.932Z,17.10
2022-10-17T21:45:45.050Z,17.10
2022-10-17T21:48:25.782Z,17.10
2022-10-17T21:51:24.378Z,17.10
2022-10-17T21:54:22.192Z,17.10
2022-10-17T21:57:43.426Z,17.10
2022-10-17T22:07:12.889Z,17.10
2022-10-17T22:10:33.975Z,17.10
2022-10-17T22:13:39.292Z,17.10
2022-10-17T22:20:06.881Z,17.10
2022-10-17T22:22:57.543Z,17.00
2022-10-17T22:29:43.126Z,17.00
2022-10-17T22:35:59.629Z,17.00
2022-10-17T22:49:47.072Z,17.00
2022-10-17T22:52:52.191Z,16.90
2022-10-17T22:56:26.837Z,16.80
2022-10-17T23:48:15.099Z,16.70
2022-10-17T23:54:53.651Z,16.60
2022-10-17T23:57:32.125Z,16.60
